sensor_id;sensor_type;location;lat;lon;timestamp;pressure;altitude;pressure_sealevel;temperature;humidity
46718;BME280;32448;44.960;-0.698;2022-11-23T00:00:48;99804.41;;;10.45;100.00
46718;BME280;32448;44.960;-0.698;2022-11-23T00:03:15;99803.53;;;10.45;100.00
46718;BME280;32448;44.960;-0.698;2022-11-23T00:05:42;99793.94;;;10.44;100.00
46718;BME280;32448;44.960;-0.698;2022-11-23T00:08:10;99793.09;;;10.46;100.00
46718;BME280;32448;44.960;-0.698;2022-11-23T00:10:37;99797.44;;;10.56;100.00
46718;BME280;32448;44.960;-0.698;2022-11-23T00:13:04;99790.50;;;10.58;100.00
46718;BME280;32448;44.960;-0.698;2022-11-23T00:15:32;99799.22;;;10.70;100.00
46718;BME280;32448;44.960;-0.698;2022-11-23T00:18:01;99801.81;;;10.79;100.00
46718;BME280;32448;44.960;-0.698;2022-11-23T00:20:29;99798.34;;;10.90;100.00
46718;BME280;32448;44.960;-0.698;2022-11-23T00:22:57;99797.47;;;10.98;100.00
46718;BME280;32448;44.960;-0.698;2022-11-23T00:25:24;99784.38;;;11.10;100.00
46718;BME280;32448;44.960;-0.698;2022-11-23T00:27:51;99792.19;;;11.16;100.00
46718;BME280;32448;44.960;-0.698;2022-11-23T00:30:19;99795.69;;;11.25;100.00
46718;BME280;32448;44.960;-0.698;2022-11-23T00:32:47;99800.91;;;11.30;100.00
46718;BME280;32448;44.960;-0.698;2022-11-23T00:35:15;99788.72;;;11.24;100.00
46718;BME280;32448;44.960;-0.698;2022-11-23T00:37:42;99798.28;;;11.33;100.00
46718;BME280;32448;44.960;-0.698;2022-11-23T00:40:10;99789.56;;;11.43;100.00
46718;BME280;32448;44.960;-0.698;2022-11-23T00:42:38;99783.38;;;11.64;100.00
46718;BME280;32448;44.960;-0.698;2022-11-23T00:45:05;99786.00;;;11.65;100.00
46718;BME280;32448;44.960;-0.698;2022-11-23T00:47:32;99777.28;;;11.62;100.00
46718;BME280;32448;44.960;-0.698;2022-11-23T00:50:00;99764.19;;;11.66;100.00
46718;BME280;32448;44.960;-0.698;2022-11-23T00:52:27;99761.56;;;11.68;100.00
46718;BME280;32448;44.960;-0.698;2022-11-23T00:54:55;99764.19;;;11.79;100.00
46718;BME280;32448;44.960;-0.698;2022-11-23T00:57:23;99719.69;;;11.62;100.00
46718;BME280;32448;44.960;-0.698;2022-11-23T00:59:50;99744.94;;;11.72;100.00
46718;BME280;32448;44.960;-0.698;2022-11-23T01:02:21;99752.84;;;11.78;100.00
46718;BME280;32448;44.960;-0.698;2022-11-23T01:04:48;99769.41;;;11.80;100.00
46718;BME280;32448;44.960;-0.698;2022-11-23T01:07:16;99745.81;;;11.83;100.00
46718;BME280;32448;44.960;-0.698;2022-11-23T01:09:43;99744.94;;;11.87;100.00
46718;BME280;32448;44.960;-0.698;2022-11-23T01:12:11;99741.44;;;11.88;100.00
46718;BME280;32448;44.960;-0.698;2022-11-23T01:14:39;99745.78;;;11.91;100.00
46718;BME280;32448;44.960;-0.698;2022-11-23T01:17:07;99736.13;;;12.02;100.00
46718;BME280;32448;44.960;-0.698;2022-11-23T01:19:35;99743.13;;;12.01;100.00
46718;BME280;32448;44.960;-0.698;2022-11-23T01:22:04;99753.53;;;12.09;100.00
46718;BME280;32448;44.960;-0.698;2022-11-23T01:24:31;99756.16;;;12.14;100.00
46718;BME280;32448;44.960;-0.698;2022-11-23T01:26:59;99762.22;;;12.20;100.00
46718;BME280;32448;44.960;-0.698;2022-11-23T01:29:27;99759.59;;;12.23;100.00
46718;BME280;32448;44.960;-0.698;2022-11-23T01:31:59;99731.66;;;12.21;100.00
46718;BME280;32448;44.960;-0.698;2022-11-23T01:34:26;99718.53;;;12.24;100.00
46718;BME280;32448;44.960;-0.698;2022-11-23T01:36:56;99728.97;;;12.28;100.00
46718;BME280;32448;44.960;-0.698;2022-11-23T01:39:26;99728.97;;;12.28;100.00
46718;BME280;32448;44.960;-0.698;2022-11-23T01:41:54;99743.81;;;12.28;100.00
46718;BME280;32448;44.960;-0.698;2022-11-23T01:44:31;99756.03;;;12.35;100.00
46718;BME280;32448;44.960;-0.698;2022-11-23T01:47:06;99772.63;;;12.35;100.00
46718;BME280;32448;44.960;-0.698;2022-11-23T01:49:40;99768.25;;;12.33;100.00
46718;BME280;32448;44.960;-0.698;2022-11-23T01:52:12;99762.06;;;12.40;100.00
46718;BME280;32448;44.960;-0.698;2022-11-23T01:54:48;99760.38;;;12.36;100.00
46718;BME280;32448;44.960;-0.698;2022-11-23T01:57:25;99762.13;;;12.37;100.00
46718;BME280;32448;44.960;-0.698;2022-11-23T01:59:54;99771.72;;;12.36;100.00
46718;BME280;32448;44.960;-0.698;2022-11-23T02:02:22;99770.88;;;12.30;100.00
46718;BME280;32448;44.960;-0.698;2022-11-23T02:04:52;99766.50;;;12.33;100.00
46718;BME280;32448;44.960;-0.698;2022-11-23T02:07:22;99770.81;;;12.40;100.00
46718;BME280;32448;44.960;-0.698;2022-11-23T02:09:51;99777.78;;;12.46;100.00
46718;BME280;32448;44.960;-0.698;2022-11-23T02:12:18;99778.66;;;12.44;100.00
46718;BME280;32448;44.960;-0.698;2022-11-23T02:14:46;99783.91;;;12.44;100.00
46718;BME280;32448;44.960;-0.698;2022-11-23T02:17:16;99792.66;;;12.39;100.00
46718;BME280;32448;44.960;-0.698;2022-11-23T02:22:34;99777.81;;;12.40;100.00
46718;BME280;32448;44.960;-0.698;2022-11-23T02:25:09;99778.66;;;12.44;100.00
46718;BME280;32448;44.960;-0.698;2022-11-23T02:27:39;99788.34;;;12.34;100.00
46718;BME280;32448;44.960;-0.698;2022-11-23T02:30:12;99794.44;;;12.33;100.00
46718;BME280;32448;44.960;-0.698;2022-11-23T02:32:40;99776.06;;;12.37;100.00
46718;BME280;32448;44.960;-0.698;2022-11-23T02:35:10;99785.72;;;12.29;100.00
46718;BME280;32448;44.960;-0.698;2022-11-23T02:37:38;99764.78;;;12.26;100.00
46718;BME280;32448;44.960;-0.698;2022-11-23T02:40:30;99769.19;;;12.21;100.00
46718;BME280;32448;44.960;-0.698;2022-11-23T02:42:59;99751.75;;;12.16;100.00
46718;BME280;32448;44.960;-0.698;2022-11-23T02:45:38;99741.31;;;12.10;100.00
46718;BME280;32448;44.960;-0.698;2022-11-23T02:48:07;99755.28;;;12.10;100.00
46718;BME280;32448;44.960;-0.698;2022-11-23T02:50:37;99743.09;;;12.04;100.00
46718;BME280;32448;44.960;-0.698;2022-11-23T02:53:05;99758.78;;;12.08;100.00
46718;BME280;32448;44.960;-0.698;2022-11-23T02:55:33;99759.66;;;12.07;100.00
46718;BME280;32448;44.960;-0.698;2022-11-23T02:58:01;99756.22;;;12.00;100.00
46718;BME280;32448;44.960;-0.698;2022-11-23T03:00:30;99714.44;;;11.80;100.00
46718;BME280;32448;44.960;-0.698;2022-11-23T03:03:00;99720.50;;;11.82;100.00
46718;BME280;32448;44.960;-0.698;2022-11-23T03:05:28;99735.31;;;11.91;100.00
46718;BME280;32448;44.960;-0.698;2022-11-23T03:07:55;99753.66;;;11.91;100.00
46718;BME280;32448;44.960;-0.698;2022-11-23T03:10:23;99756.28;;;11.89;100.00
46718;BME280;32448;44.960;-0.698;2022-11-23T03:12:55;99746.69;;;11.72;100.00
46718;BME280;32448;44.960;-0.698;2022-11-23T03:15:24;99774.66;;;11.77;100.00
46718;BME280;32448;44.960;-0.698;2022-11-23T03:17:51;99781.63;;;11.80;100.00
46718;BME280;32448;44.960;-0.698;2022-11-23T03:20:19;99792.97;;;11.80;100.00
46718;BME280;32448;44.960;-0.698;2022-11-23T03:22:49;99801.69;;;11.81;100.00
46718;BME280;32448;44.960;-0.698;2022-11-23T03:25:18;99799.09;;;11.79;100.00
46718;BME280;32448;44.960;-0.698;2022-11-23T03:27:48;99790.34;;;11.79;100.00
46718;BME280;32448;44.960;-0.698;2022-11-23T03:30:20;99783.38;;;11.76;100.00
46718;BME280;32448;44.960;-0.698;2022-11-23T03:32:48;99770.25;;;11.72;100.00
46718;BME280;32448;44.960;-0.698;2022-11-23T03:35:17;99770.28;;;11.70;100.00
46718;BME280;32448;44.960;-0.698;2022-11-23T03:38:04;99770.28;;;11.70;100.00
46718;BME280;32448;44.960;-0.698;2022-11-23T03:40:32;99763.28;;;11.72;100.00
46718;BME280;32448;44.960;-0.698;2022-11-23T03:43:10;99750.22;;;11.69;100.00
46718;BME280;32448;44.960;-0.698;2022-11-23T03:45:37;99754.59;;;11.65;100.00
46718;BME280;32448;44.960;-0.698;2022-11-23T03:48:05;99745.00;;;11.64;100.00
46718;BME280;32448;44.960;-0.698;2022-11-23T03:50:32;99751.97;;;11.64;100.00
46718;BME280;32448;44.960;-0.698;2022-11-23T03:52:59;99751.09;;;11.60;100.00
46718;BME280;32448;44.960;-0.698;2022-11-23T03:55:27;99753.75;;;11.56;100.00
46718;BME280;32448;44.960;-0.698;2022-11-23T03:57:55;99745.03;;;11.54;100.00
46718;BME280;32448;44.960;-0.698;2022-11-23T04:00:29;99752.00;;;11.55;100.00
46718;BME280;32448;44.960;-0.698;2022-11-23T04:02:57;99759.00;;;11.56;100.00
46718;BME280;32448;44.960;-0.698;2022-11-23T04:05:47;99772.06;;;11.56;100.00
46718;BME280;32448;44.960;-0.698;2022-11-23T04:08:35;99771.19;;;11.54;100.00
46718;BME280;32448;44.960;-0.698;2022-11-23T04:11:07;99769.47;;;11.50;100.00
46718;BME280;32448;44.960;-0.698;2022-11-23T04:13:37;99776.44;;;11.55;100.00
46718;BME280;32448;44.960;-0.698;2022-11-23T04:16:06;99776.44;;;11.54;100.00
46718;BME280;32448;44.960;-0.698;2022-11-23T04:18:35;99773.81;;;11.52;100.00
46718;BME280;32448;44.960;-0.698;2022-11-23T04:21:03;99765.97;;;11.52;100.00
46718;BME280;32448;44.960;-0.698;2022-11-23T04:23:30;99775.56;;;11.55;100.00
46718;BME280;32448;44.960;-0.698;2022-11-23T04:26:00;99772.06;;;11.50;100.00
46718;BME280;32448;44.960;-0.698;2022-11-23T04:28:28;99763.38;;;11.45;100.00
46718;BME280;32448;44.960;-0.698;2022-11-23T04:30:55;99769.47;;;11.50;100.00
46718;BME280;32448;44.960;-0.698;2022-11-23T04:33:29;99723.25;;;11.46;100.00
46718;BME280;32448;44.960;-0.698;2022-11-23T04:35:58;99699.72;;;11.46;100.00
46718;BME280;32448;44.960;-0.698;2022-11-23T04:38:27;99697.97;;;11.43;100.00
46718;BME280;32448;44.960;-0.698;2022-11-23T04:40:54;99683.16;;;11.44;100.00
46718;BME280;32448;44.960;-0.698;2022-11-23T04:43:22;99684.88;;;11.46;100.00
46718;BME280;32448;44.960;-0.698;2022-11-23T04:45:52;99683.16;;;11.45;100.00
46718;BME280;32448;44.960;-0.698;2022-11-23T04:48:26;99670.94;;;11.44;100.00
46718;BME280;32448;44.960;-0.698;2022-11-23T04:50:55;99698.84;;;11.44;100.00
46718;BME280;32448;44.960;-0.698;2022-11-23T04:53:30;99720.59;;;11.55;100.00
46718;BME280;32448;44.960;-0.698;2022-11-23T04:55:59;99735.44;;;11.56;100.00
46718;BME280;32448;44.960;-0.698;2022-11-23T04:58:28;99737.19;;;11.51;100.00
46718;BME280;32448;44.960;-0.698;2022-11-23T05:01:00;99753.75;;;11.56;100.00
46718;BME280;32448;44.960;-0.698;2022-11-23T05:03:30;99751.13;;;11.59;100.00
46718;BME280;32448;44.960;-0.698;2022-11-23T05:06:04;99756.34;;;11.65;100.00
46718;BME280;32448;44.960;-0.698;2022-11-23T05:08:38;99759.81;;;11.70;100.00
46718;BME280;32448;44.960;-0.698;2022-11-23T05:11:25;99754.59;;;11.65;100.00
46718;BME280;32448;44.960;-0.698;2022-11-23T05:13:56;99763.28;;;11.72;100.00
46718;BME280;32448;44.960;-0.698;2022-11-23T05:16:24;99770.28;;;11.70;100.00
46718;BME280;32448;44.960;-0.698;2022-11-23T05:18:52;99779.88;;;11.77;100.00
46718;BME280;32448;44.960;-0.698;2022-11-23T05:21:20;99767.66;;;11.81;100.00
46718;BME280;32448;44.960;-0.698;2022-11-23T05:23:47;99755.44;;;11.77;100.00
46718;BME280;32448;44.960;-0.698;2022-11-23T05:26:17;99753.66;;;11.91;100.00
46718;BME280;32448;44.960;-0.698;2022-11-23T05:28:44;99789.41;;;11.98;100.00
46718;BME280;32448;44.960;-0.698;2022-11-23T05:31:14;99777.19;;;11.95;100.00
46718;BME280;32448;44.960;-0.698;2022-11-23T05:33:44;99765.81;;;12.01;100.00
46718;BME280;32448;44.960;-0.698;2022-11-23T05:36:14;99771.94;;;12.00;100.00
46718;BME280;32448;44.960;-0.698;2022-11-23T05:38:42;99782.41;;;11.98;100.00
46718;BME280;32448;44.960;-0.698;2022-11-23T05:41:19;99780.66;;;12.00;100.00
46718;BME280;32448;44.960;-0.698;2022-11-23T05:43:49;99775.38;;;12.11;100.00
46718;BME280;32448;44.960;-0.698;2022-11-23T05:46:22;99778.81;;;12.18;100.00
46718;BME280;32448;44.960;-0.698;2022-11-23T05:48:49;99780.56;;;12.20;100.00
46718;BME280;32448;44.960;-0.698;2022-11-23T05:51:17;99770.94;;;12.19;100.00
46718;BME280;32448;44.960;-0.698;2022-11-23T05:53:48;99753.50;;;12.17;100.00
46718;BME280;32448;44.960;-0.698;2022-11-23T05:56:28;99762.16;;;12.26;100.00
46718;BME280;32448;44.960;-0.698;2022-11-23T05:59:14;99790.09;;;12.35;100.00
46718;BME280;32448;44.960;-0.698;2022-11-23T06:01:47;99783.03;;;12.40;100.00
46718;BME280;32448;44.960;-0.698;2022-11-23T06:04:28;99777.84;;;12.35;100.00
46718;BME280;32448;44.960;-0.698;2022-11-23T06:06:57;99800.56;;;12.35;100.00
46718;BME280;32448;44.960;-0.698;2022-11-23T06:09:38;99808.31;;;12.50;100.00
46718;BME280;32448;44.960;-0.698;2022-11-23T06:12:09;99780.41;;;12.48;100.00
46718;BME280;32448;44.960;-0.698;2022-11-23T06:14:39;99797.84;;;12.49;100.00
46718;BME280;32448;44.960;-0.698;2022-11-23T06:17:06;99798.66;;;12.58;100.00
46718;BME280;32448;44.960;-0.698;2022-11-23T06:19:43;99799.56;;;12.56;100.00
46718;BME280;32448;44.960;-0.698;2022-11-23T06:22:12;99770.81;;;12.42;100.00
46718;BME280;32448;44.960;-0.698;2022-11-23T06:24:47;99796.94;;;12.53;100.00
46718;BME280;32448;44.960;-0.698;2022-11-23T06:27:36;99812.66;;;12.54;100.00
46718;BME280;32448;44.960;-0.698;2022-11-23T06:30:13;99810.06;;;12.50;100.00
46718;BME280;32448;44.960;-0.698;2022-11-23T06:32:41;99819.59;;;12.63;100.00
46718;BME280;32448;44.960;-0.698;2022-11-23T06:35:08;99814.34;;;12.64;100.00
46718;BME280;32448;44.960;-0.698;2022-11-23T06:37:38;99823.06;;;12.66;100.00
46718;BME280;32448;44.960;-0.698;2022-11-23T06:40:07;99821.34;;;12.64;100.00
46718;BME280;32448;44.960;-0.698;2022-11-23T06:42:35;99824.81;;;12.64;100.00
46718;BME280;32448;44.960;-0.698;2022-11-23T06:45:12;99826.56;;;12.70;100.00
46718;BME280;32448;44.960;-0.698;2022-11-23T06:47:40;99827.44;;;12.66;100.00
46718;BME280;32448;44.960;-0.698;2022-11-23T06:50:08;99840.50;;;12.70;100.00
46718;BME280;32448;44.960;-0.698;2022-11-23T06:52:36;99836.19;;;12.65;100.00
46718;BME280;32448;44.960;-0.698;2022-11-23T06:55:04;99841.41;;;12.68;100.00
46718;BME280;32448;44.960;-0.698;2022-11-23T06:57:32;99826.56;;;12.67;100.00
46718;BME280;32448;44.960;-0.698;2022-11-23T07:00:01;99839.59;;;12.77;100.00
46718;BME280;32448;44.960;-0.698;2022-11-23T07:02:33;99846.59;;;12.77;100.00
46718;BME280;32448;44.960;-0.698;2022-11-23T07:05:00;99849.22;;;12.80;100.00
46718;BME280;32448;44.960;-0.698;2022-11-23T07:07:30;99860.56;;;12.81;100.00
46718;BME280;32448;44.960;-0.698;2022-11-23T07:10:06;99844.84;;;12.76;100.00
46718;BME280;32448;44.960;-0.698;2022-11-23T07:12:41;99853.59;;;12.80;100.00
46718;BME280;32448;44.960;-0.698;2022-11-23T07:15:09;99829.13;;;12.71;100.00
46718;BME280;32448;44.960;-0.698;2022-11-23T07:17:39;99843.03;;;12.83;100.00
46718;BME280;32448;44.960;-0.698;2022-11-23T07:20:10;99839.59;;;12.77;100.00
46718;BME280;32448;44.960;-0.698;2022-11-23T07:22:38;99850.03;;;12.82;100.00
46718;BME280;32448;44.960;-0.698;2022-11-23T07:25:06;99843.97;;;12.80;100.00
46718;BME280;32448;44.960;-0.698;2022-11-23T07:27:34;99846.53;;;12.82;100.00
46718;BME280;32448;44.960;-0.698;2022-11-23T07:30:03;99850.03;;;12.87;100.00
46718;BME280;32448;44.960;-0.698;2022-11-23T07:32:30;99851.78;;;12.86;100.00
46718;BME280;32448;44.960;-0.698;2022-11-23T07:34:57;99881.44;;;12.94;100.00
46718;BME280;32448;44.960;-0.698;2022-11-23T07:37:27;99902.41;;;12.99;100.00
46718;BME280;32448;44.960;-0.698;2022-11-23T07:39:54;99912.91;;;12.96;100.00
46718;BME280;32448;44.960;-0.698;2022-11-23T07:42:25;99914.63;;;12.98;100.00
46718;BME280;32448;44.960;-0.698;2022-11-23T07:45:09;99905.03;;;12.93;100.00
46718;BME280;32448;44.960;-0.698;2022-11-23T07:47:41;99923.38;;;13.00;100.00
46718;BME280;32448;44.960;-0.698;2022-11-23T07:50:10;99929.44;;;13.04;100.00
46718;BME280;32448;44.960;-0.698;2022-11-23T07:52:38;99933.81;;;13.06;100.00
46718;BME280;32448;44.960;-0.698;2022-11-23T07:55:07;99943.44;;;13.09;100.00
46718;BME280;32448;44.960;-0.698;2022-11-23T07:57:35;99942.53;;;13.18;100.00
46718;BME280;32448;44.960;-0.698;2022-11-23T08:00:03;99938.16;;;13.12;100.00
46718;BME280;32448;44.960;-0.698;2022-11-23T08:02:38;99921.56;;;13.08;100.00
46718;BME280;32448;44.960;-0.698;2022-11-23T08:05:25;99939.91;;;13.13;100.00
46718;BME280;32448;44.960;-0.698;2022-11-23T08:07:58;99950.38;;;13.19;100.00
46718;BME280;32448;44.960;-0.698;2022-11-23T08:10:27;99950.38;;;13.22;100.00
46718;BME280;32448;44.960;-0.698;2022-11-23T08:13:03;99943.31;;;13.30;100.00
46718;BME280;32448;44.960;-0.698;2022-11-23T08:15:31;99941.56;;;13.32;100.00
46718;BME280;32448;44.960;-0.698;2022-11-23T08:18:01;99949.44;;;13.26;100.00
46718;BME280;32448;44.960;-0.698;2022-11-23T08:20:29;99950.38;;;13.25;100.00
46718;BME280;32448;44.960;-0.698;2022-11-23T08:22:57;99964.28;;;13.35;100.00
46718;BME280;32448;44.960;-0.698;2022-11-23T08:25:26;99985.28;;;13.36;100.00
46718;BME280;32448;44.960;-0.698;2022-11-23T08:28:01;99987.06;;;13.30;100.00
46718;BME280;32448;44.960;-0.698;2022-11-23T08:30:30;99988.78;;;13.35;100.00
46718;BME280;32448;44.960;-0.698;2022-11-23T08:32:58;100009.69;;;13.47;100.00
46718;BME280;32448;44.960;-0.698;2022-11-23T08:35:28;100016.66;;;13.50;100.00
46718;BME280;32448;44.960;-0.698;2022-11-23T08:37:55;100015.75;;;13.54;100.00
46718;BME280;32448;44.960;-0.698;2022-11-23T08:40:23;100026.25;;;13.56;100.00
46718;BME280;32448;44.960;-0.698;2022-11-23T08:42:51;100033.25;;;13.57;100.00
46718;BME280;32448;44.960;-0.698;2022-11-23T08:45:19;100034.09;;;13.59;100.00
46718;BME280;32448;44.960;-0.698;2022-11-23T08:47:46;100039.34;;;13.60;100.00
46718;BME280;32448;44.960;-0.698;2022-11-23T08:50:14;100041.97;;;13.62;100.00
46718;BME280;32448;44.960;-0.698;2022-11-23T08:52:41;100055.13;;;13.57;100.00
46718;BME280;32448;44.960;-0.698;2022-11-23T08:55:09;100069.97;;;13.63;100.00
46718;BME280;32448;44.960;-0.698;2022-11-23T08:57:36;100067.41;;;13.52;100.00
46718;BME280;32448;44.960;-0.698;2022-11-23T09:00:04;100071.78;;;13.52;100.00
46718;BME280;32448;44.960;-0.698;2022-11-23T09:02:32;100082.28;;;13.50;100.00
46718;BME280;32448;44.960;-0.698;2022-11-23T09:04:59;100086.72;;;13.46;100.00
46718;BME280;32448;44.960;-0.698;2022-11-23T09:07:27;100088.47;;;13.46;100.00
46718;BME280;32448;44.960;-0.698;2022-11-23T09:09:54;100103.28;;;13.56;100.00
46718;BME280;32448;44.960;-0.698;2022-11-23T09:12:21;100105.09;;;13.46;100.00
46718;BME280;32448;44.960;-0.698;2022-11-23T09:14:49;100108.59;;;13.44;100.00
46718;BME280;32448;44.960;-0.698;2022-11-23T09:17:16;100122.59;;;13.46;100.00
46718;BME280;32448;44.960;-0.698;2022-11-23T09:19:43;100129.59;;;13.41;100.00
46718;BME280;32448;44.960;-0.698;2022-11-23T09:22:10;100154.16;;;13.35;100.00
46718;BME280;32448;44.960;-0.698;2022-11-23T09:24:37;100152.41;;;13.36;100.00
46718;BME280;32448;44.960;-0.698;2022-11-23T09:27:05;100155.84;;;13.38;100.00
46718;BME280;32448;44.960;-0.698;2022-11-23T09:29:33;100169.06;;;13.21;100.00
46718;BME280;32448;44.960;-0.698;2022-11-23T09:32:01;100163.84;;;13.03;100.00
46718;BME280;32448;44.960;-0.698;2022-11-23T09:34:29;100188.31;;;13.08;100.00
46718;BME280;32448;44.960;-0.698;2022-11-23T09:36:57;100205.81;;;13.01;100.00
46718;BME280;32448;44.960;-0.698;2022-11-23T09:39:26;100206.69;;;12.99;100.00
46718;BME280;32448;44.960;-0.698;2022-11-23T09:44:50;100218.03;;;13.10;100.00
46718;BME280;32448;44.960;-0.698;2022-11-23T09:50:26;100226.78;;;13.12;100.00
46718;BME280;32448;44.960;-0.698;2022-11-23T09:52:56;100229.41;;;13.12;100.00
46718;BME280;32448;44.960;-0.698;2022-11-23T09:55:36;100237.28;;;13.06;100.00
46718;BME280;32448;44.960;-0.698;2022-11-23T09:58:12;100249.53;;;13.10;100.00
46718;BME280;32448;44.960;-0.698;2022-11-23T10:00:50;100263.53;;;13.07;100.00
46718;BME280;32448;44.960;-0.698;2022-11-23T10:03:21;100270.53;;;13.15;100.00
46718;BME280;32448;44.960;-0.698;2022-11-23T10:09:16;100302.88;;;13.30;100.00
46718;BME280;32448;44.960;-0.698;2022-11-23T10:14:38;100317.75;;;13.16;100.00
46718;BME280;32448;44.960;-0.698;2022-11-23T10:23:00;100356.25;;;13.26;100.00
46718;BME280;32448;44.960;-0.698;2022-11-23T10:25:39;100363.25;;;13.21;100.00
46718;BME280;32448;44.960;-0.698;2022-11-23T10:28:14;100351.03;;;13.22;100.00
46718;BME280;32448;44.960;-0.698;2022-11-23T10:30:52;100370.25;;;13.33;100.00
46718;BME280;32448;44.960;-0.698;2022-11-23T10:33:31;100375.47;;;13.37;100.00
46718;BME280;32448;44.960;-0.698;2022-11-23T10:36:03;100375.47;;;13.56;100.00
46718;BME280;32448;44.960;-0.698;2022-11-23T10:38:32;100355.34;;;13.55;100.00
46718;BME280;32448;44.960;-0.698;2022-11-23T10:41:04;100393.81;;;13.77;100.00
46718;BME280;32448;44.960;-0.698;2022-11-23T10:43:54;100408.66;;;13.96;100.00
46718;BME280;32448;44.960;-0.698;2022-11-23T10:46:27;100422.69;;;13.86;100.00
46718;BME280;32448;44.960;-0.698;2022-11-23T10:49:17;100425.38;;;13.69;100.00
46718;BME280;32448;44.960;-0.698;2022-11-23T10:52:02;100420.13;;;13.49;100.00
46718;BME280;32448;44.960;-0.698;2022-11-23T10:54:46;100436.75;;;13.44;100.00
46718;BME280;32448;44.960;-0.698;2022-11-23T10:57:21;100430.59;;;13.10;100.00
46718;BME280;32448;44.960;-0.698;2022-11-23T11:00:15;100448.13;;;13.22;100.00
46718;BME280;32448;44.960;-0.698;2022-11-23T11:02:48;100421.84;;;13.11;100.00
46718;BME280;32448;44.960;-0.698;2022-11-23T11:08:19;100448.97;;;13.18;100.00
46718;BME280;32448;44.960;-0.698;2022-11-23T11:11:02;100451.59;;;13.16;100.00
46718;BME280;32448;44.960;-0.698;2022-11-23T11:13:43;100444.56;;;13.10;100.00
46718;BME280;32448;44.960;-0.698;2022-11-23T11:16:20;100458.56;;;13.11;100.00
46718;BME280;32448;44.960;-0.698;2022-11-23T11:18:48;100461.25;;;13.23;100.00
46718;BME280;32448;44.960;-0.698;2022-11-23T11:21:19;100468.22;;;13.26;100.00
46718;BME280;32448;44.960;-0.698;2022-11-23T11:24:02;100460.38;;;13.32;100.00
46718;BME280;32448;44.960;-0.698;2022-11-23T11:26:33;100478.75;;;13.29;100.00
46718;BME280;32448;44.960;-0.698;2022-11-23T11:29:04;100485.75;;;13.24;100.00
46718;BME280;32448;44.960;-0.698;2022-11-23T11:31:53;100504.09;;;13.27;100.00
46718;BME280;32448;44.960;-0.698;2022-11-23T11:37:41;100526.84;;;13.26;100.00
46718;BME280;32448;44.960;-0.698;2022-11-23T11:40:20;100530.31;;;13.15;100.00
46718;BME280;32448;44.960;-0.698;2022-11-23T11:45:43;100527.63;;;12.95;100.00
46718;BME280;32448;44.960;-0.698;2022-11-23T11:48:48;100533.75;;;13.04;100.00
46718;BME280;32448;44.960;-0.698;2022-11-23T11:51:27;100526.72;;;12.94;100.00
46718;BME280;32448;44.960;-0.698;2022-11-23T11:54:11;100566.13;;;13.02;100.00
46718;BME280;32448;44.960;-0.698;2022-11-23T11:56:44;100546.88;;;13.00;100.00
46718;BME280;32448;44.960;-0.698;2022-11-23T12:01:56;100527.63;;;12.92;100.00
46718;BME280;32448;44.960;-0.698;2022-11-23T12:04:40;100550.47;;;13.14;100.00
46718;BME280;32448;44.960;-0.698;2022-11-23T12:07:32;100553.09;;;13.22;100.00
46718;BME280;32448;44.960;-0.698;2022-11-23T12:10:16;100559.25;;;13.25;100.00
46718;BME280;32448;44.960;-0.698;2022-11-23T12:12:44;100568.88;;;13.29;100.00
46718;BME280;32448;44.960;-0.698;2022-11-23T12:15:31;100574.13;;;13.29;100.00
46718;BME280;32448;44.960;-0.698;2022-11-23T12:30:00;100610.81;;;13.19;100.00
46718;BME280;32448;44.960;-0.698;2022-11-23T12:43:12;100613.31;;;12.91;100.00
46718;BME280;32448;44.960;-0.698;2022-11-23T12:46:02;100609.78;;;12.88;100.00
46718;BME280;32448;44.960;-0.698;2022-11-23T12:54:14;100626.41;;;12.93;100.00
46718;BME280;32448;44.960;-0.698;2022-11-23T12:59:24;100635.22;;;12.99;100.00
46718;BME280;32448;44.960;-0.698;2022-11-23T13:01:59;100616.00;;;13.02;100.00
46718;BME280;32448;44.960;-0.698;2022-11-23T13:07:21;100650.97;;;13.05;100.00
46718;BME280;32448;44.960;-0.698;2022-11-23T13:10:38;100653.59;;;13.01;100.00
46718;BME280;32448;44.960;-0.698;2022-11-23T13:13:35;100635.97;;;12.83;100.00
46718;BME280;32448;44.960;-0.698;2022-11-23T13:19:29;100651.81;;;12.98;100.00
46718;BME280;32448;44.960;-0.698;2022-11-23T13:22:03;100658.00;;;13.11;100.00
46718;BME280;32448;44.960;-0.698;2022-11-23T13:24:34;100658.06;;;13.14;100.00
46718;BME280;32448;44.960;-0.698;2022-11-23T13:40:25;100713.38;;;13.58;100.00
46718;BME280;32448;44.960;-0.698;2022-11-23T13:42:58;100682.63;;;13.30;100.00
46718;BME280;32448;44.960;-0.698;2022-11-23T13:45:32;100708.94;;;13.43;100.00
46718;BME280;32448;44.960;-0.698;2022-11-23T13:55:55;100703.72;;;13.46;100.00
46718;BME280;32448;44.960;-0.698;2022-11-23T14:00:58;100717.66;;;13.35;100.00
46718;BME280;32448;44.960;-0.698;2022-11-23T14:23:05;100733.44;;;13.48;100.00
46718;BME280;32448;44.960;-0.698;2022-11-23T14:28:35;100748.28;;;13.37;100.00
46718;BME280;32448;44.960;-0.698;2022-11-23T14:36:58;100741.09;;;13.10;100.00
46718;BME280;32448;44.960;-0.698;2022-11-23T14:40:00;100771.81;;;13.19;100.00
46718;BME280;32448;44.960;-0.698;2022-11-23T14:42:30;100767.34;;;13.09;100.00
46718;BME280;32448;44.960;-0.698;2022-11-23T14:45:02;100771.66;;;13.01;100.00
46718;BME280;32448;44.960;-0.698;2022-11-23T14:47:31;100761.03;;;12.86;100.00
46718;BME280;32448;44.960;-0.698;2022-11-23T14:49:58;100777.69;;;12.88;100.00
46718;BME280;32448;44.960;-0.698;2022-11-23T14:52:34;100775.91;;;12.85;100.00
46718;BME280;32448;44.960;-0.698;2022-11-23T14:55:04;100770.63;;;12.81;100.00
46718;BME280;32448;44.960;-0.698;2022-11-23T14:57:43;100781.16;;;12.87;100.00
46718;BME280;32448;44.960;-0.698;2022-11-23T15:00:41;100790.78;;;12.86;100.00